createdAt,value
2023-05-17T21:48:05.981Z,100.00
2023-05-17T21:48:42.690Z,100.00
2023-05-17T21:49:15.120Z,100.00
2023-05-17T21:49:47.115Z,100.00
2023-05-17T21:50:19.377Z,100.00
2023-05-17T21:50:54.382Z,100.00
2023-05-17T21:51:26.410Z,100.00
2023-05-17T21:51:58.456Z,100.00
2023-05-17T21:52:30.617Z,100.00
2023-05-17T21:53:02.768Z,100.00
2023-05-17T21:53:34.957Z,100.00
2023-05-17T21:54:07.107Z,100.00
2023-05-17T21:54:41.184Z,100.00
2023-05-17T21:55:13.546Z,100.00
2023-05-17T21:56:01.428Z,100.00
2023-05-17T21:56:35.280Z,100.00
2023-05-17T21:57:07.736Z,100.00
2023-05-17T21:57:39.879Z,100.00
2023-05-17T21:58:12.133Z,100.00
2023-05-17T22:00:57.841Z,100.00
2023-05-17T22:01:30.208Z,100.00
2023-05-17T22:02:02.521Z,100.00
2023-05-17T22:02:36.334Z,100.00
2023-05-17T22:03:10.077Z,100.00
2023-05-17T22:04:38.412Z,100.00
2023-05-17T22:05:11.656Z,100.00
2023-05-17T22:05:43.706Z,100.00
2023-05-17T22:06:15.769Z,100.00
2023-05-17T22:06:48.050Z,100.00
2023-05-17T22:07:20.177Z,100.00
2023-05-17T22:07:52.887Z,100.00
2023-05-17T22:08:25.212Z,100.00
2023-05-17T22:08:59.095Z,100.00
2023-05-17T22:09:32.444Z,100.00
2023-05-17T22:10:07.929Z,100.00
2023-05-17T22:10:41.930Z,100.00
2023-05-17T22:11:14.358Z,100.00
2023-05-17T22:11:46.993Z,100.00
2023-05-17T22:12:24.824Z,100.00
2023-05-17T22:12:57.785Z,100.00
2023-05-17T22:13:32.300Z,100.00
2023-05-17T22:14:07.902Z,100.00
2023-05-17T22:14:44.287Z,100.00
2023-05-17T22:15:16.810Z,100.00
2023-05-17T22:15:49.766Z,100.00
2023-05-17T22:16:23.657Z,100.00
2023-05-17T22:16:55.903Z,100.00
2023-05-17T22:17:35.602Z,100.00
2023-05-17T22:18:20.405Z,100.00
2023-05-17T22:18:52.720Z,100.00
2023-05-17T22:19:25.802Z,100.00
2023-05-17T22:28:51.996Z,100.00
2023-05-17T22:29:24.551Z,100.00
2023-05-17T22:29:56.698Z,100.00
2023-05-17T22:30:29.744Z,100.00
2023-05-17T22:31:07.287Z,100.00
2023-05-17T22:31:39.949Z,100.00
2023-05-17T22:32:57.040Z,100.00
2023-05-17T22:33:29.248Z,100.00
2023-05-17T22:34:01.604Z,100.00
2023-05-17T22:34:34.710Z,100.00
2023-05-17T22:35:06.996Z,100.00
2023-05-17T22:35:40.740Z,100.00
2023-05-17T22:36:16.884Z,100.00
2023-05-17T22:36:48.938Z,100.00
2023-05-17T22:37:22.382Z,100.00
2023-05-17T22:37:54.684Z,100.00
2023-05-17T22:38:26.635Z,100.00
2023-05-17T22:38:58.803Z,100.00
2023-05-17T22:39:31.658Z,100.00
2023-05-17T22:40:05.962Z,100.00
2023-05-17T22:40:38.067Z,100.00
2023-05-17T22:41:11.112Z,100.00
2023-05-17T22:41:43.412Z,100.00
2023-05-17T22:42:15.544Z,100.00
2023-05-17T22:42:47.820Z,100.00
2023-05-17T22:43:21.672Z,100.00
2023-05-17T22:43:53.674Z,100.00
2023-05-17T22:44:26.111Z,100.00
2023-05-17T22:44:58.264Z,100.00
2023-05-17T22:45:32.718Z,100.00
2023-05-17T22:46:05.842Z,100.00
2023-05-17T22:46:38.218Z,100.00
2023-05-17T22:47:42.456Z,100.00
2023-05-17T22:48:15.094Z,100.00
2023-05-17T22:48:49.989Z,100.00
2023-05-17T22:49:22.249Z,100.00
2023-05-17T22:58:42.169Z,100.00
2023-05-17T22:59:14.303Z,100.00
2023-05-17T22:59:46.545Z,100.00
2023-05-17T23:00:19.353Z,100.00
2023-05-17T23:00:52.252Z,100.00
2023-05-17T23:01:25.214Z,100.00
2023-05-17T23:01:57.475Z,100.00
2023-05-17T23:02:30.238Z,100.00
2023-05-17T23:03:02.550Z,100.00
2023-05-17T23:03:34.892Z,100.00
2023-05-17T23:04:07.273Z,100.00
2023-05-17T23:04:39.859Z,100.00
2023-05-17T23:05:12.644Z,100.00
2023-05-17T23:05:45.599Z,100.00
2023-05-17T23:06:21.572Z,100.00
2023-05-17T23:06:54.615Z,100.00
2023-05-17T23:07:27.464Z,100.00
2023-05-17T23:08:01.593Z,100.00
2023-05-17T23:08:34.198Z,100.00
2023-05-17T23:09:06.715Z,100.00
2023-05-17T23:09:40.193Z,100.00
2023-05-17T23:10:13.257Z,100.00
2023-05-17T23:10:45.674Z,100.00
2023-05-17T23:11:19.558Z,100.00
2023-05-17T23:11:51.577Z,100.00
2023-05-17T23:12:27.205Z,100.00
2023-05-17T23:12:59.558Z,100.00
2023-05-17T23:13:32.649Z,100.00
2023-05-17T23:14:05.502Z,100.00
2023-05-17T23:14:37.674Z,100.00
2023-05-17T23:15:10.472Z,100.00
2023-05-17T23:15:46.404Z,100.00
2023-05-17T23:16:18.490Z,100.00
2023-05-17T23:16:51.758Z,100.00
2023-05-17T23:17:24.323Z,100.00
2023-05-17T23:17:59.251Z,100.00
2023-05-17T23:18:31.611Z,100.00
2023-05-17T23:19:04.272Z,100.00
2023-05-17T23:19:36.789Z,100.00
2023-05-17T23:20:10.035Z,100.00
2023-05-17T23:20:43.444Z,100.00
2023-05-17T23:21:15.756Z,100.00
2023-05-17T23:21:48.691Z,100.00
2023-05-17T23:22:21.130Z,100.00
2023-05-17T23:22:53.397Z,100.00
2023-05-17T23:23:26.065Z,100.00
2023-05-17T23:23:59.762Z,100.00
2023-05-17T23:24:38.656Z,100.00
2023-05-17T23:25:10.937Z,100.00
2023-05-17T23:25:48.098Z,100.00
2023-05-17T23:26:21.704Z,100.00
2023-05-17T23:26:55.590Z,100.00
2023-05-17T23:27:29.768Z,100.00
2023-05-17T23:28:04.061Z,100.00
2023-05-17T23:28:37.888Z,100.00
2023-05-17T23:29:10.328Z,100.00
2023-05-17T23:29:42.587Z,100.00
2023-05-17T23:30:15.328Z,100.00
2023-05-17T23:30:48.359Z,100.00
2023-05-17T23:31:21.474Z,100.00
2023-05-17T23:31:53.863Z,100.00
2023-05-17T23:32:26.770Z,100.00
2023-05-17T23:32:59.711Z,100.00
2023-05-17T23:33:44.469Z,100.00
2023-05-17T23:34:19.067Z,100.00
2023-05-17T23:34:57.916Z,100.00
2023-05-17T23:35:31.011Z,100.00
2023-05-17T23:36:03.937Z,100.00
2023-05-17T23:36:36.284Z,100.00
2023-05-17T23:37:08.435Z,100.00
2023-05-17T23:37:40.693Z,100.00
2023-05-17T23:38:13.273Z,100.00
2023-05-17T23:38:45.733Z,100.00
2023-05-17T23:39:17.993Z,100.00
2023-05-17T23:39:50.382Z,100.00
2023-05-17T23:40:22.599Z,100.00
2023-05-17T23:40:56.210Z,100.00
2023-05-17T23:41:29.149Z,100.00
2023-05-17T23:42:01.309Z,100.00
2023-05-17T23:42:33.398Z,100.00
2023-05-17T23:43:07.878Z,100.00
2023-05-17T23:43:40.542Z,100.00
2023-05-17T23:44:13.736Z,100.00
2023-05-17T23:44:48.529Z,100.00
2023-05-17T23:45:20.994Z,100.00
2023-05-17T23:45:53.284Z,100.00
2023-05-17T23:46:26.573Z,100.00
2023-05-17T23:46:59.512Z,100.00
2023-05-17T23:47:33.187Z,100.00
2023-05-17T23:48:05.476Z,100.00
2023-05-17T23:48:38.008Z,100.00
2023-05-17T23:49:15.118Z,100.00
2023-05-17T23:49:47.860Z,100.00
2023-05-17T23:50:20.313Z,100.00
2023-05-17T23:50:52.621Z,100.00
2023-05-17T23:51:25.021Z,100.00
2023-05-17T23:51:57.609Z,100.00
2023-05-17T23:52:31.996Z,100.00
2023-05-17T23:53:04.576Z,100.00
2023-05-17T23:53:37.848Z,100.00
2023-05-17T23:54:10.038Z,100.00
2023-05-17T23:54:42.490Z,100.00
2023-05-17T23:55:14.829Z,100.00
2023-05-17T23:55:46.761Z,99.97
2023-05-17T23:56:19.345Z,99.94
2023-05-17T23:56:51.489Z,99.89
2023-05-17T23:57:23.853Z,99.83
2023-05-17T23:57:56.747Z,99.69
2023-05-17T23:58:29.088Z,99.59
2023-05-17T23:59:01.498Z,99.61
2023-05-17T23:59:34.579Z,99.57
